Dover Air Force Base
KDOV : now visible

Airfield :











YOU CAN JOIN US ON...

 
LOGIN :

Register | Disclaimer

   EN    FR    IT 

 









Legend :    VFR   Marginal VFR   IFR   Intensive IFR   Very Intensive IFR
Visi :
Ceiling :
>= 8 km
>= 3000ft
5 to 8 km
1000 to 3000 ft
1500m to 5 km
500 to 1000 ft
800 to 1500m
200 to 500 ft
< 800m
< 200 ft
Symbols :   Thunderstorms  Fog  Heavy snow  Heavy precipitations  Wind > 20 kt






- Airport Elevation : 24 ft


KDOV - Dover Air Force Base

CURRENT METAR :
  • 271455Z 11009KT 10SM BKN030 23/21 A2980 RMK AO2A SLP095 T02340207 56003

EXPIRED METARs :
  • 271437Z 10006KT 10SM SCT010 BKN014 BKN180 BKN210 24/21 A2980 RMK AO2A RWY32 SLP095
  • 271410Z 09006KT 10SM OVC010 23/21 A2980 RMK AO2A RWY32 SLP095
  • 271355Z 09006KT 10SM OVC008 24/21 A2980 RMK AO2A SLP095 T02380209
  • 271255Z 14006KT 10SM OVC009 23/20 A2981 RMK AO2A SLP098 T02260203
  • 271227Z 16007KT 10SM BKN009 22/20 A2981 RMK SLP098
  • 271155Z AUTO 18006KT 10SM FEW140 SCT170 SCT210 22/20 A2981 RMK AO2 SLPNO 60000 T02170196 10217 20199 53002 $
  • 271055Z AUTO 00000KT 10SM FEW180 21/19 A2981 RMK AO2 SLP098 T02080189 $

TAF AMD TAF KDOV
Valid from the 27 at 12:00 until the 28 at 14:00 UTC


271225Z 2712/2814 18009KT 9999 BKN015 QNH2976INS
TEMPO 2712/2715 BKN008
BECMG 2715/2716 18012G18KT 8000 -RA BKN015 QNH2964INS
TEMPO 2718/2722 18020G35KT 3200 TSRA BKN007CB
BECMG 2722/2723 21012KT 9999 NSW BKN040 BKN060 QNH2963INS
BECMG 2801/2802 24009KT 9999 FEW050 QNH2969INS
BECMG 2811/2812 29012G20KT 9999 SKC QNH2980INS TX30/2720Z TN21/2808Z
KZDC FIR / North America



MET'MAP, your aeronautical weather chart ! - Copyright ORBIFLY December 2007 - Disclaimer

ORBIFLY MET'MAP TEAM :

Programming & Development : Alexandra Zaïnal
Original concept : Baudouin d'Aumeries
Technical & hardware support : Manuel Goepfert
Assistance : Marc-Olivier Méhu




SOURCES & CREDITS :

   NOAA       Earth
Advisory